createdAt,value
2022-11-13T00:00:15.626Z,9.16
2022-11-13T00:03:04.028Z,8.53
2022-11-13T00:06:01.067Z,9.19
2022-11-13T00:08:48.873Z,9.10
2022-11-13T00:11:35.910Z,9.04
2022-11-13T00:14:22.917Z,9.20
2022-11-13T00:17:11.331Z,9.19
2022-11-13T00:19:59.836Z,9.51
2022-11-13T00:22:47.181Z,8.68
2022-11-13T00:25:36.968Z,9.29
2022-11-13T00:28:24.428Z,7.67
2022-11-13T00:31:14.498Z,8.93
2022-11-13T00:34:19.668Z,9.28
2022-11-13T00:37:10.120Z,9.30
2022-11-13T00:39:59.720Z,9.06
2022-11-13T00:42:47.016Z,9.20
2022-11-13T00:45:34.069Z,9.13
2022-11-13T00:48:21.800Z,8.68
2022-11-13T00:51:09.221Z,8.00
2022-11-13T00:53:58.068Z,9.17
2022-11-13T00:56:45.464Z,8.22
2022-11-13T00:59:32.689Z,8.26
2022-11-13T01:02:19.892Z,8.64
2022-11-13T01:05:08.797Z,8.58
2022-11-13T01:07:56.202Z,7.52
2022-11-13T01:10:53.058Z,8.72
2022-11-13T01:13:41.883Z,7.65
2022-11-13T01:16:30.298Z,8.54
2022-11-13T01:19:17.700Z,8.51
2022-11-13T01:22:04.658Z,8.54
2022-11-13T01:24:52.040Z,7.82
2022-11-13T01:27:40.980Z,8.51
2022-11-13T01:30:28.892Z,7.62
2022-11-13T01:33:15.902Z,6.92
2022-11-13T01:36:04.505Z,7.90
2022-11-13T01:38:52.307Z,8.08
2022-11-13T01:41:39.964Z,8.02
2022-11-13T01:44:47.801Z,6.89
2022-11-13T01:47:34.905Z,8.05
2022-11-13T01:50:22.341Z,7.37
2022-11-13T01:53:10.441Z,8.07
2022-11-13T01:55:57.899Z,7.65
2022-11-13T01:58:50.311Z,8.02
2022-11-13T02:01:38.942Z,7.59
2022-11-13T02:04:27.342Z,7.63
2022-11-13T02:07:17.278Z,7.36
2022-11-13T02:10:05.685Z,6.61
2022-11-13T02:12:54.090Z,7.01
2022-11-13T02:15:43.420Z,7.77
2022-11-13T02:18:33.479Z,6.78
2022-11-13T02:21:33.185Z,7.60
2022-11-13T02:24:32.992Z,7.55
2022-11-13T02:27:28.639Z,7.71
2022-11-13T02:30:25.339Z,7.34
2022-11-13T02:33:25.605Z,7.64
2022-11-13T02:36:14.527Z,7.84
2022-11-13T02:39:07.516Z,7.46
2022-11-13T02:41:56.418Z,6.41
2022-11-13T02:44:43.621Z,6.90
2022-11-13T02:47:31.810Z,7.59
2022-11-13T02:50:20.093Z,6.70
2022-11-13T02:53:08.496Z,7.33
2022-11-13T02:55:55.438Z,7.39
2022-11-13T02:58:44.107Z,7.89
2022-11-13T03:01:33.502Z,7.69
2022-11-13T03:04:20.548Z,7.63
2022-11-13T03:07:07.594Z,7.61
2022-11-13T03:09:55.357Z,7.40
2022-11-13T03:12:42.744Z,7.46
2022-11-13T03:15:31.456Z,7.33
2022-11-13T03:18:18.730Z,7.72
2022-11-13T03:21:11.904Z,6.37
2022-11-13T03:23:59.585Z,7.54
2022-11-13T03:26:47.312Z,7.14
2022-11-13T03:29:36.351Z,7.21
2022-11-13T03:32:24.914Z,7.60
2022-11-13T03:35:11.978Z,7.44
2022-11-13T03:37:58.916Z,7.76
2022-11-13T03:40:46.202Z,7.63
2022-11-13T03:43:32.983Z,7.34
2022-11-13T03:46:20.352Z,7.49
2022-11-13T03:49:09.174Z,7.16
2022-11-13T03:51:56.003Z,7.79
2022-11-13T03:54:45.265Z,7.62
2022-11-13T03:57:32.296Z,7.70
2022-11-13T04:00:19.948Z,6.93
2022-11-13T04:03:07.019Z,7.10
2022-11-13T04:05:55.373Z,7.37
2022-11-13T04:08:42.675Z,7.64
2022-11-13T04:11:32.237Z,5.97
2022-11-13T04:14:19.410Z,7.67
2022-11-13T04:17:06.669Z,7.45
2022-11-13T04:19:53.979Z,7.48
2022-11-13T04:22:42.415Z,7.56
2022-11-13T04:25:29.453Z,7.47
2022-11-13T04:28:16.477Z,7.14
2022-11-13T04:31:03.434Z,6.33
2022-11-13T04:33:50.339Z,7.09
2022-11-13T04:36:37.353Z,7.53
2022-11-13T04:39:25.599Z,7.35
2022-11-13T04:42:42.675Z,6.37
2022-11-13T04:45:30.103Z,7.34
2022-11-13T04:48:17.076Z,7.38
2022-11-13T04:51:04.316Z,7.06
2022-11-13T04:53:54.128Z,7.09
2022-11-13T04:56:42.689Z,7.20
2022-11-13T04:59:29.645Z,6.43
2022-11-13T05:02:17.111Z,7.37
2022-11-13T05:05:05.434Z,7.54
2022-11-13T05:07:55.919Z,7.43
2022-11-13T05:10:42.884Z,7.31
2022-11-13T05:13:34.447Z,7.21
2022-11-13T05:16:21.818Z,7.59
2022-11-13T05:19:09.226Z,7.48
2022-11-13T05:21:56.583Z,6.50
2022-11-13T05:24:43.659Z,7.61
2022-11-13T05:27:31.583Z,6.39
2022-11-13T05:30:20.231Z,7.12
2022-11-13T05:33:07.381Z,7.54
2022-11-13T05:35:54.627Z,7.52
2022-11-13T05:38:42.699Z,7.50
2022-11-13T05:41:30.045Z,7.01
2022-11-13T05:44:17.179Z,7.54
2022-11-13T05:47:05.846Z,7.40
2022-11-13T05:49:52.649Z,7.30
2022-11-13T05:52:39.983Z,6.87
2022-11-13T05:55:26.823Z,7.06
2022-11-13T05:58:13.884Z,7.12
2022-11-13T06:01:10.141Z,7.14
2022-11-13T06:04:00.178Z,5.62
2022-11-13T06:06:47.288Z,6.63
2022-11-13T06:09:34.409Z,6.49
2022-11-13T06:12:21.231Z,6.82
2022-11-13T06:15:09.356Z,6.95
2022-11-13T06:17:56.240Z,6.91
2022-11-13T06:20:44.899Z,6.83
2022-11-13T06:23:34.716Z,6.98
2022-11-13T06:26:24.668Z,6.72
2022-11-13T06:29:13.967Z,5.75
2022-11-13T06:32:01.022Z,6.65
2022-11-13T06:34:48.336Z,6.79
2022-11-13T06:37:36.725Z,6.76
2022-11-13T06:40:23.878Z,6.68
2022-11-13T06:43:10.982Z,6.62
2022-11-13T06:45:58.769Z,6.41
2022-11-13T06:48:46.100Z,6.13
2022-11-13T06:51:33.950Z,6.21
2022-11-13T06:54:22.536Z,6.70
2022-11-13T06:57:10.264Z,6.62
2022-11-13T06:59:57.529Z,6.66
2022-11-13T07:02:44.216Z,6.53
2022-11-13T07:05:31.300Z,6.68
2022-11-13T07:08:19.645Z,6.60
2022-11-13T07:11:09.127Z,6.64
2022-11-13T07:13:56.138Z,6.37
2022-11-13T07:17:08.026Z,6.74
2022-11-13T07:19:50.311Z,5.75
2022-11-13T07:22:37.465Z,6.66
2022-11-13T07:25:24.348Z,6.87
2022-11-13T07:28:13.654Z,6.68
2022-11-13T07:31:02.226Z,6.87
2022-11-13T07:33:53.123Z,6.72
2022-11-13T07:36:40.042Z,6.97
2022-11-13T07:39:27.156Z,6.59
2022-11-13T07:42:14.579Z,6.79
2022-11-13T07:45:03.167Z,6.87
2022-11-13T07:47:50.344Z,6.16
2022-11-13T07:50:39.443Z,6.54
2022-11-13T07:53:26.516Z,6.75
2022-11-13T07:56:15.672Z,6.87
2022-11-13T07:59:05.942Z,6.90
2022-11-13T08:01:54.533Z,6.84
2022-11-13T08:04:41.919Z,7.28
2022-11-13T08:07:30.693Z,6.88
2022-11-13T08:10:20.232Z,7.14
2022-11-13T08:13:09.824Z,7.12
2022-11-13T08:16:00.370Z,6.68
2022-11-13T08:18:48.969Z,7.26
2022-11-13T08:21:37.238Z,6.76
2022-11-13T08:24:25.127Z,7.60
2022-11-13T08:27:12.202Z,7.63
2022-11-13T08:29:58.990Z,7.74
2022-11-13T08:32:46.538Z,7.70
2022-11-13T08:35:35.093Z,8.04
2022-11-13T08:38:21.892Z,8.02
2022-11-13T08:41:09.838Z,7.90
2022-11-13T08:43:56.749Z,7.30
2022-11-13T08:46:46.806Z,7.13
2022-11-13T08:49:33.479Z,7.53
2022-11-13T08:52:21.908Z,8.16
2022-11-13T08:55:09.299Z,8.31
2022-11-13T08:58:00.412Z,7.50
2022-11-13T09:00:48.089Z,7.84
2022-11-13T09:03:36.356Z,8.78
2022-11-13T09:06:23.786Z,7.87
2022-11-13T09:09:12.566Z,7.31
2022-11-13T09:11:59.722Z,9.23
2022-11-13T09:14:46.702Z,8.85
2022-11-13T09:17:34.745Z,9.43
2022-11-13T09:20:23.107Z,8.83
2022-11-13T09:23:10.851Z,9.76
2022-11-13T09:26:01.999Z,9.42
2022-11-13T09:28:49.247Z,9.92
2022-11-13T09:31:38.483Z,10.24
2022-11-13T09:34:27.722Z,9.84
2022-11-13T09:37:16.421Z,10.84
2022-11-13T09:40:03.360Z,11.15
2022-11-13T09:42:52.315Z,11.38
2022-11-13T09:45:41.996Z,11.53
2022-11-13T09:48:36.821Z,11.43
2022-11-13T09:51:30.346Z,11.96
2022-11-13T09:54:17.499Z,11.94
2022-11-13T09:57:24.694Z,12.04
2022-11-13T10:00:19.166Z,11.91
2022-11-13T10:03:54.176Z,12.58
2022-11-13T10:06:53.528Z,12.72
2022-11-13T10:09:55.455Z,13.01
2022-11-13T10:12:43.114Z,12.12
2022-11-13T10:15:33.112Z,12.33
2022-11-13T10:18:28.124Z,13.43
2022-11-13T10:21:28.291Z,13.68
2022-11-13T10:24:22.173Z,14.04
2022-11-13T10:27:11.462Z,14.16
2022-11-13T10:29:58.774Z,14.42
2022-11-13T10:32:48.036Z,14.49
2022-11-13T10:35:50.435Z,14.72
2022-11-13T10:38:46.289Z,14.06
2022-11-13T10:41:33.438Z,14.66
2022-11-13T10:44:23.231Z,15.36
2022-11-13T10:47:36.122Z,15.31
2022-11-13T10:50:29.886Z,15.37
2022-11-13T10:53:19.197Z,15.17
2022-11-13T10:56:27.740Z,15.62
2022-11-13T10:59:17.436Z,15.76
2022-11-13T11:02:18.067Z,15.64
2022-11-13T11:05:08.626Z,16.39
2022-11-13T11:07:58.540Z,16.26
2022-11-13T11:11:15.707Z,16.62
2022-11-13T11:14:19.220Z,16.81
2022-11-13T11:17:07.244Z,16.84
2022-11-13T11:20:07.764Z,16.55
2022-11-13T11:23:01.370Z,16.25
2022-11-13T11:25:54.900Z,16.85
2022-11-13T11:28:50.533Z,16.68
2022-11-13T11:31:43.397Z,16.72
2022-11-13T11:34:37.808Z,16.94
2022-11-13T11:37:30.037Z,17.49
2022-11-13T11:40:27.944Z,17.43
2022-11-13T11:43:20.940Z,17.67
2022-11-13T11:46:13.534Z,17.66
2022-11-13T11:49:02.565Z,18.10
2022-11-13T11:52:04.719Z,18.01
2022-11-13T11:55:03.480Z,17.79
2022-11-13T11:57:59.919Z,18.57
2022-11-13T12:00:52.517Z,18.67
2022-11-13T12:04:17.388Z,18.58
2022-11-13T12:07:27.426Z,18.61
2022-11-13T12:10:28.954Z,18.82
2022-11-13T12:13:28.480Z,19.19
2022-11-13T12:16:25.576Z,19.10
2022-11-13T12:19:23.794Z,19.33
2022-11-13T12:22:20.717Z,19.37
2022-11-13T12:25:20.441Z,19.16
2022-11-13T12:28:19.826Z,19.66
2022-11-13T12:31:26.171Z,19.65
2022-11-13T12:34:24.138Z,19.50
2022-11-13T12:37:15.425Z,19.68
2022-11-13T12:40:08.690Z,19.79
2022-11-13T12:43:13.981Z,19.59
2022-11-13T12:46:08.170Z,19.52
2022-11-13T12:48:56.822Z,19.47
2022-11-13T12:51:56.408Z,19.75
2022-11-13T12:54:44.389Z,19.80
2022-11-13T12:57:33.008Z,19.59
2022-11-13T13:00:27.537Z,19.33
2022-11-13T13:03:33.629Z,19.38
2022-11-13T13:06:52.048Z,19.62
2022-11-13T13:10:01.100Z,19.50
2022-11-13T13:13:00.566Z,19.92
2022-11-13T13:15:56.928Z,20.12
2022-11-13T13:18:44.079Z,20.05
2022-11-13T13:21:42.984Z,19.77
2022-11-13T13:24:34.594Z,20.16
2022-11-13T13:27:27.447Z,20.46
2022-11-13T13:30:21.184Z,20.53
2022-11-13T13:33:23.256Z,20.51
2022-11-13T13:36:25.705Z,20.86
2022-11-13T13:39:35.584Z,20.87
2022-11-13T13:42:41.949Z,20.92
2022-11-13T13:45:42.358Z,20.60
2022-11-13T13:48:32.172Z,20.98
2022-11-13T13:51:28.336Z,20.81
2022-11-13T13:54:26.209Z,20.58
2022-11-13T13:57:17.139Z,20.24
2022-11-13T14:00:04.822Z,20.75
2022-11-13T14:02:54.346Z,21.04
2022-11-13T14:05:41.811Z,21.11
2022-11-13T14:08:30.100Z,21.01
2022-11-13T14:11:27.143Z,21.06
2022-11-13T14:14:21.505Z,20.47
2022-11-13T14:17:11.217Z,20.73
2022-11-13T14:20:01.037Z,20.94
2022-11-13T14:22:56.344Z,20.55
2022-11-13T14:25:45.780Z,20.71
2022-11-13T14:28:44.008Z,20.09
2022-11-13T14:31:34.993Z,20.59
2022-11-13T14:34:24.782Z,20.36
2022-11-13T14:37:24.800Z,20.29
2022-11-13T14:40:23.954Z,20.20
2022-11-13T14:43:21.046Z,19.80
2022-11-13T14:46:37.353Z,19.86
2022-11-13T14:49:29.972Z,19.28
2022-11-13T14:52:24.289Z,19.31
2022-11-13T14:55:24.294Z,18.94
2022-11-13T14:58:14.887Z,18.56
2022-11-13T15:01:17.133Z,18.45
2022-11-13T15:04:04.067Z,18.17
2022-11-13T15:06:55.544Z,18.27
2022-11-13T15:09:42.782Z,17.64
2022-11-13T15:12:29.743Z,17.99
2022-11-13T15:15:20.495Z,17.77
2022-11-13T15:18:16.397Z,17.41
2022-11-13T15:21:03.742Z,17.44
2022-11-13T15:23:52.239Z,17.04
2022-11-13T15:26:39.860Z,17.03
2022-11-13T15:29:27.105Z,16.83
2022-11-13T15:32:16.020Z,16.58
2022-11-13T15:35:05.202Z,16.29
2022-11-13T15:37:54.620Z,16.14
2022-11-13T15:40:41.894Z,14.43
2022-11-13T15:43:29.393Z,14.28
2022-11-13T15:46:18.777Z,15.27
2022-11-13T15:49:05.616Z,15.60
2022-11-13T15:51:54.471Z,15.38
2022-11-13T15:54:41.263Z,14.68
2022-11-13T15:57:30.883Z,15.06
2022-11-13T16:00:21.396Z,14.69
2022-11-13T16:03:11.782Z,14.70
2022-11-13T16:05:59.889Z,14.42
2022-11-13T16:08:48.324Z,14.37
2022-11-13T16:11:36.283Z,13.37
2022-11-13T16:14:25.123Z,14.05
2022-11-13T16:17:16.504Z,13.69
2022-11-13T16:20:04.265Z,13.65
2022-11-13T16:22:51.653Z,13.42
2022-11-13T16:25:40.157Z,12.94
2022-11-13T16:28:29.387Z,13.09
2022-11-13T16:31:18.812Z,11.46
2022-11-13T16:34:05.545Z,12.77
2022-11-13T16:36:52.879Z,12.80
2022-11-13T16:39:39.791Z,12.44
2022-11-13T16:42:30.914Z,11.00
2022-11-13T16:45:18.608Z,12.55
2022-11-13T16:48:06.397Z,11.12
2022-11-13T16:50:53.952Z,11.49
2022-11-13T16:53:41.733Z,11.10
2022-11-13T16:56:30.703Z,10.31
2022-11-13T16:59:20.362Z,10.60
2022-11-13T17:02:17.275Z,10.54
2022-11-13T17:05:05.428Z,10.38
2022-11-13T17:07:58.021Z,11.58
2022-11-13T17:10:45.390Z,9.86
2022-11-13T17:13:32.824Z,11.47
2022-11-13T17:16:22.480Z,9.94
2022-11-13T17:19:13.686Z,9.75
2022-11-13T17:22:09.289Z,11.28
2022-11-13T17:25:00.688Z,11.22
2022-11-13T17:27:48.227Z,10.68
2022-11-13T17:30:35.526Z,9.09
2022-11-13T17:33:23.923Z,9.74
2022-11-13T17:36:12.000Z,9.87
2022-11-13T17:38:59.701Z,10.14
2022-11-13T17:41:46.970Z,10.61
2022-11-13T17:44:34.419Z,9.47
2022-11-13T17:47:24.007Z,10.60
2022-11-13T17:50:12.642Z,10.17
2022-11-13T17:53:00.313Z,10.07
2022-11-13T17:55:55.405Z,10.44
2022-11-13T17:58:47.614Z,9.44
2022-11-13T18:01:34.750Z,9.27
2022-11-13T18:04:22.218Z,8.84
2022-11-13T18:07:11.910Z,10.17
2022-11-13T18:10:01.834Z,10.11
2022-11-13T18:12:50.997Z,10.22
2022-11-13T18:15:39.202Z,10.12
2022-11-13T18:18:26.106Z,9.62
2022-11-13T18:21:23.735Z,9.99
2022-11-13T18:24:17.253Z,9.15
2022-11-13T18:27:06.211Z,9.85
2022-11-13T18:29:53.407Z,9.84
2022-11-13T18:32:40.677Z,9.69
2022-11-13T18:35:27.769Z,8.56
2022-11-13T18:38:15.176Z,7.81
2022-11-13T18:41:06.785Z,8.67
2022-11-13T18:43:54.538Z,8.18
2022-11-13T18:46:41.938Z,7.82
2022-11-13T18:49:29.220Z,7.55
2022-11-13T18:52:16.892Z,7.85
2022-11-13T18:55:04.348Z,8.23
2022-11-13T18:57:52.597Z,8.55
2022-11-13T19:00:39.774Z,8.85
2022-11-13T19:03:27.155Z,8.11
2022-11-13T19:06:16.250Z,8.07
2022-11-13T19:09:09.259Z,7.62
2022-11-13T19:11:59.056Z,7.93
2022-11-13T19:14:49.655Z,9.01
2022-11-13T19:17:37.002Z,8.05
2022-11-13T19:20:27.183Z,7.38
2022-11-13T19:23:15.207Z,7.15
2022-11-13T19:26:02.518Z,8.61
2022-11-13T19:28:52.799Z,8.44
2022-11-13T19:31:41.798Z,7.45
2022-11-13T19:34:29.305Z,7.49
2022-11-13T19:37:19.189Z,7.05
2022-11-13T19:40:08.245Z,7.06
2022-11-13T19:42:55.584Z,6.75
2022-11-13T19:45:42.712Z,8.68
2022-11-13T19:48:31.869Z,6.96
2022-11-13T19:51:21.248Z,7.42
2022-11-13T19:54:09.016Z,8.59
2022-11-13T19:56:56.031Z,7.49
2022-11-13T19:59:43.505Z,8.08
2022-11-13T20:02:30.994Z,6.96
2022-11-13T20:05:19.546Z,7.66
2022-11-13T20:08:06.876Z,7.69
2022-11-13T20:10:57.465Z,7.64
2022-11-13T20:13:46.516Z,7.25
2022-11-13T20:16:34.047Z,7.11
2022-11-13T20:19:21.794Z,8.28
2022-11-13T20:22:19.700Z,7.67
2022-11-13T20:25:07.927Z,8.11
2022-11-13T20:27:55.093Z,7.42
2022-11-13T20:30:43.069Z,8.08
2022-11-13T20:33:33.191Z,7.94
2022-11-13T20:36:20.942Z,7.67
2022-11-13T20:39:12.099Z,7.69
2022-11-13T20:42:01.363Z,7.16
2022-11-13T20:44:48.264Z,7.96
2022-11-13T20:47:35.651Z,7.40
2022-11-13T20:50:22.994Z,7.25
2022-11-13T20:53:09.995Z,7.88
2022-11-13T20:56:01.355Z,7.78
2022-11-13T20:58:49.187Z,6.78
2022-11-13T21:01:37.244Z,7.69
2022-11-13T21:04:24.254Z,7.36
2022-11-13T21:07:14.277Z,7.02
2022-11-13T21:10:02.086Z,7.68
2022-11-13T21:12:50.836Z,7.87
2022-11-13T21:15:39.301Z,7.76
2022-11-13T21:18:26.956Z,7.03
2022-11-13T21:21:18.848Z,7.38
2022-11-13T21:24:07.870Z,7.65
2022-11-13T21:26:55.240Z,7.69
2022-11-13T21:29:43.675Z,7.21
2022-11-13T21:32:30.800Z,7.64
2022-11-13T21:35:22.309Z,7.63
2022-11-13T21:38:09.922Z,6.91
2022-11-13T21:41:14.489Z,7.53
2022-11-13T21:44:04.784Z,6.73
2022-11-13T21:46:58.646Z,6.23
2022-11-13T21:49:45.543Z,7.50
2022-11-13T21:52:33.042Z,6.11
2022-11-13T21:55:21.690Z,7.45
2022-11-13T21:58:08.760Z,7.52
2022-11-13T22:00:55.530Z,7.35
2022-11-13T22:03:43.947Z,7.56
2022-11-13T22:06:33.038Z,7.34
2022-11-13T22:09:22.391Z,7.38
2022-11-13T22:12:10.454Z,7.36
2022-11-13T22:15:02.332Z,7.30
2022-11-13T22:17:49.211Z,7.32
2022-11-13T22:20:37.189Z,7.49
2022-11-13T22:23:24.867Z,7.08
2022-11-13T22:26:14.268Z,7.38
2022-11-13T22:29:04.301Z,7.41
2022-11-13T22:31:51.532Z,6.99
2022-11-13T22:34:38.417Z,7.33
2022-11-13T22:37:26.943Z,7.33
2022-11-13T22:40:15.181Z,7.35
2022-11-13T22:43:02.322Z,7.27
2022-11-13T22:45:49.339Z,6.54
2022-11-13T22:48:38.115Z,7.35
2022-11-13T22:51:27.609Z,6.47
2022-11-13T22:54:16.375Z,7.15
2022-11-13T22:57:04.227Z,7.24
2022-11-13T22:59:51.618Z,6.09
2022-11-13T23:02:43.051Z,6.96
2022-11-13T23:05:35.550Z,7.14
2022-11-13T23:08:22.581Z,6.78
2022-11-13T23:11:14.667Z,6.33
2022-11-13T23:14:05.638Z,7.10
2022-11-13T23:16:52.790Z,7.13
2022-11-13T23:19:39.693Z,6.68
2022-11-13T23:22:26.781Z,7.17
2022-11-13T23:25:14.027Z,6.90
2022-11-13T23:28:02.779Z,7.06
2022-11-13T23:30:49.973Z,6.18
2022-11-13T23:33:38.364Z,7.10
2022-11-13T23:36:25.159Z,7.04
2022-11-13T23:39:12.435Z,6.54
2022-11-13T23:41:59.895Z,6.90
2022-11-13T23:44:48.098Z,6.91
2022-11-13T23:47:36.793Z,6.86
2022-11-13T23:50:24.036Z,6.57
2022-11-13T23:53:11.471Z,5.91
2022-11-13T23:55:59.869Z,6.72
2022-11-13T23:58:46.535Z,6.52
